createdAt,value
2019-01-23T00:02:05.822Z,33.60
2019-01-23T00:04:35.840Z,35.07
2019-01-23T00:07:05.664Z,37.87
2019-01-23T00:09:35.534Z,37.77
2019-01-23T00:12:05.519Z,35.77
2019-01-23T00:14:35.603Z,37.77
2019-01-23T00:17:05.846Z,37.73
2019-01-23T00:19:35.833Z,39.90
2019-01-23T00:22:06.443Z,36.47
2019-01-23T00:24:36.308Z,33.23
2019-01-23T00:27:06.853Z,37.93
2019-01-23T00:29:36.902Z,39.13
2019-01-23T00:32:06.826Z,37.97
2019-01-23T00:34:36.773Z,36.00
2019-01-23T00:37:06.702Z,39.20
2019-01-23T00:39:37.877Z,36.80
2019-01-23T00:42:07.818Z,41.10
2019-01-23T00:44:37.618Z,35.60
2019-01-23T00:47:07.441Z,39.03
2019-01-23T00:49:37.305Z,35.17
2019-01-23T00:52:07.079Z,36.63
2019-01-23T00:54:37.062Z,40.70
2019-01-23T00:57:07.022Z,38.97
2019-01-23T00:59:36.834Z,35.63
2019-01-23T01:02:06.764Z,38.77
2019-01-23T01:04:36.998Z,36.67
2019-01-23T01:07:07.957Z,41.87
2019-01-23T01:09:38.828Z,38.07
2019-01-23T01:12:08.902Z,36.77
2019-01-23T01:14:38.780Z,41.15
2019-01-23T01:17:08.688Z,36.73
2019-01-23T01:19:38.603Z,35.33
2019-01-23T01:22:08.542Z,36.17
2019-01-23T01:24:38.339Z,37.67
2019-01-23T01:27:08.190Z,37.23
2019-01-23T01:29:38.148Z,35.80
2019-01-23T01:32:08.019Z,38.20
2019-01-23T01:34:37.791Z,42.48
2019-01-23T01:37:07.746Z,39.33
2019-01-23T01:39:37.633Z,38.60
2019-01-23T01:42:07.619Z,30.30
2019-01-23T01:44:37.564Z,37.37
2019-01-23T01:47:07.451Z,36.10
2019-01-23T01:49:37.462Z,35.90
2019-01-23T01:52:07.416Z,34.00
2019-01-23T01:54:37.585Z,35.33
2019-01-23T01:57:07.521Z,34.50
2019-01-23T01:59:37.391Z,35.63
2019-01-23T02:02:07.249Z,39.77
2019-01-23T02:04:37.403Z,35.08
2019-01-23T02:07:07.385Z,36.33
2019-01-23T02:09:37.327Z,36.30
2019-01-23T02:12:07.338Z,34.23
2019-01-23T02:14:37.932Z,39.13
2019-01-23T02:17:07.846Z,33.57
2019-01-23T02:19:37.940Z,34.17
2019-01-23T02:22:07.861Z,35.17
2019-01-23T02:24:37.880Z,32.03
2019-01-23T02:27:07.953Z,30.80
2019-01-23T02:29:37.729Z,34.90
2019-01-23T02:32:07.713Z,29.47
2019-01-23T02:34:37.751Z,34.53
2019-01-23T02:37:07.771Z,34.73
2019-01-23T02:39:37.709Z,35.77
2019-01-23T02:42:07.639Z,31.90
2019-01-23T02:44:37.621Z,35.07
2019-01-23T02:47:08.246Z,29.90
2019-01-23T02:49:38.269Z,33.63
2019-01-23T02:52:08.174Z,33.10
2019-01-23T02:54:38.307Z,31.23
2019-01-23T02:57:08.249Z,29.77
2019-01-23T02:59:38.140Z,30.93
2019-01-23T03:02:08.127Z,31.27
2019-01-23T03:04:38.164Z,32.80
2019-01-23T03:07:08.331Z,29.80
2019-01-23T03:09:38.280Z,32.50
2019-01-23T03:12:08.291Z,33.47
2019-01-23T03:14:38.680Z,27.80
2019-01-23T03:17:08.742Z,23.23
2019-01-23T03:19:39.106Z,30.23
2019-01-23T03:22:09.150Z,32.37
2019-01-23T03:24:40.381Z,33.07
2019-01-23T03:27:10.377Z,28.57
2019-01-23T03:29:40.906Z,29.37
2019-01-23T03:32:10.703Z,34.20
2019-01-23T03:34:40.984Z,33.70
2019-01-23T03:37:10.856Z,31.17
2019-01-23T03:39:40.898Z,33.23
2019-01-23T03:42:10.838Z,32.63
2019-01-23T03:44:40.876Z,33.83
2019-01-23T03:47:10.745Z,29.18
2019-01-23T03:49:40.966Z,33.33
2019-01-23T03:52:10.909Z,30.32
2019-01-23T03:54:41.047Z,37.33
2019-01-23T03:57:10.969Z,34.98
2019-01-23T03:59:41.010Z,35.17
2019-01-23T04:02:10.982Z,34.67
2019-01-23T04:04:40.842Z,31.33
2019-01-23T04:07:10.718Z,33.80
2019-01-23T04:09:40.655Z,38.80
2019-01-23T04:12:10.569Z,32.67
2019-01-23T04:14:40.373Z,34.87
2019-01-23T04:17:10.300Z,34.80
2019-01-23T04:19:40.106Z,35.15
2019-01-23T04:22:10.013Z,37.10
2019-01-23T04:24:39.836Z,37.93
2019-01-23T04:27:09.677Z,35.03
2019-01-23T04:29:40.009Z,36.93
2019-01-23T04:32:10.177Z,36.65
2019-01-23T04:34:40.018Z,34.47
2019-01-23T04:37:09.823Z,39.47
2019-01-23T04:39:39.604Z,33.63
2019-01-23T04:42:09.423Z,36.57
2019-01-23T04:44:39.240Z,35.30
2019-01-23T04:47:09.124Z,36.95
2019-01-23T04:49:41.401Z,36.77
2019-01-23T04:52:18.125Z,37.42
2019-01-23T04:54:47.896Z,34.43
2019-01-23T04:57:18.143Z,42.53
2019-01-23T04:59:48.103Z,41.00
2019-01-23T05:02:17.974Z,38.35
2019-01-23T05:04:47.882Z,38.97
2019-01-23T05:07:17.748Z,36.73
2019-01-23T05:09:47.666Z,39.10
2019-01-23T05:12:17.753Z,35.43
2019-01-23T05:14:47.587Z,40.87
2019-01-23T05:17:17.679Z,41.80
2019-01-23T05:19:47.640Z,37.93
2019-01-23T05:22:17.489Z,39.90
2019-01-23T05:24:47.322Z,39.00
2019-01-23T05:27:17.217Z,40.27
2019-01-23T05:29:54.677Z,38.85
2019-01-23T05:32:19.113Z,39.13
2019-01-23T05:34:49.010Z,38.27
2019-01-23T05:37:18.871Z,35.00
2019-01-23T05:39:48.741Z,38.00
2019-01-23T05:42:19.015Z,41.77
2019-01-23T05:44:58.739Z,38.83
2019-01-23T05:47:28.846Z,37.83
2019-01-23T05:50:10.724Z,41.45
2019-01-23T05:52:40.624Z,38.47
2019-01-23T05:55:11.651Z,36.63
2019-01-23T05:57:41.698Z,37.93
2019-01-23T06:00:15.178Z,37.03
2019-01-23T06:02:45.276Z,37.83
2019-01-23T06:05:17.005Z,37.70
2019-01-23T06:07:47.328Z,42.10
2019-01-23T06:10:17.233Z,42.33
2019-01-23T06:12:47.734Z,35.60
2019-01-23T06:15:17.884Z,38.53
2019-01-23T06:17:49.078Z,38.17
2019-01-23T06:20:21.741Z,45.73
2019-01-23T06:22:51.547Z,42.80
2019-01-23T06:25:21.973Z,40.20
2019-01-23T06:27:57.249Z,38.23
2019-01-23T06:30:29.055Z,40.00
2019-01-23T06:32:59.101Z,40.57
2019-01-23T06:35:29.200Z,39.95
2019-01-23T06:37:59.307Z,38.37
2019-01-23T06:40:30.552Z,34.77
2019-01-23T06:43:00.778Z,36.87
2019-01-23T06:45:31.159Z,45.70
2019-01-23T06:48:02.501Z,44.60
2019-01-23T06:50:32.554Z,40.90
2019-01-23T06:53:02.676Z,44.87
2019-01-23T06:55:33.120Z,42.30
2019-01-23T06:58:03.146Z,42.90
2019-01-23T07:00:33.450Z,41.70
2019-01-23T07:03:04.556Z,42.70
2019-01-23T07:05:34.945Z,44.83
2019-01-23T07:08:05.413Z,41.88
2019-01-23T07:10:35.503Z,42.80
2019-01-23T07:13:05.823Z,39.87
2019-01-23T07:15:35.871Z,40.47
2019-01-23T07:18:06.303Z,40.03
2019-01-23T07:20:36.851Z,42.83
2019-01-23T07:23:06.984Z,44.50
2019-01-23T07:25:38.492Z,40.28
2019-01-23T07:28:10.175Z,45.03
2019-01-23T07:30:42.048Z,38.23
2019-01-23T07:33:20.039Z,42.43
2019-01-23T07:35:50.120Z,44.20
2019-01-23T07:38:20.260Z,44.33
2019-01-23T07:40:51.269Z,41.03
2019-01-23T07:43:21.445Z,47.87
2019-01-23T07:45:51.440Z,41.87
2019-01-23T07:48:21.235Z,34.93
2019-01-23T07:50:53.334Z,45.83
2019-01-23T07:53:24.196Z,39.40
2019-01-23T07:55:54.154Z,40.77
2019-01-23T07:58:24.088Z,39.87
2019-01-23T08:00:54.098Z,44.53
2019-01-23T08:03:24.310Z,41.73
2019-01-23T08:05:54.849Z,39.10
2019-01-23T08:08:24.782Z,38.63
2019-01-23T08:10:54.744Z,35.77
2019-01-23T08:13:24.896Z,37.17
2019-01-23T08:15:55.236Z,40.13
2019-01-23T08:18:25.768Z,38.75
2019-01-23T08:20:55.683Z,39.33
2019-01-23T08:23:25.642Z,40.90
2019-01-23T08:25:55.687Z,41.97
2019-01-23T08:28:25.605Z,40.60
2019-01-23T08:30:55.671Z,41.20
2019-01-23T08:33:25.596Z,39.55
2019-01-23T08:35:55.519Z,38.80
2019-01-23T08:38:25.413Z,37.10
2019-01-23T08:40:55.453Z,36.50
2019-01-23T08:43:25.867Z,37.97
2019-01-23T08:45:56.191Z,37.10
2019-01-23T08:48:25.994Z,43.80
2019-01-23T08:50:55.932Z,38.67
2019-01-23T08:53:25.924Z,37.23
2019-01-23T08:55:55.773Z,37.50
2019-01-23T08:58:32.258Z,41.23
2019-01-23T09:01:00.529Z,37.40
2019-01-23T09:03:30.286Z,38.63
2019-01-23T09:06:01.896Z,36.68
2019-01-23T09:08:37.577Z,37.80
2019-01-23T09:11:05.556Z,40.87
2019-01-23T09:13:38.577Z,35.97
2019-01-23T09:16:08.556Z,37.50
2019-01-23T09:18:39.859Z,39.40
2019-01-23T09:21:11.946Z,35.50
2019-01-23T09:23:42.360Z,34.50
2019-01-23T09:26:12.520Z,37.60
2019-01-23T09:28:42.794Z,38.03
2019-01-23T09:31:47.275Z,36.50
2019-01-23T09:34:56.550Z,33.73
2019-01-23T09:37:55.165Z,33.10
2019-01-23T09:40:40.417Z,33.50
2019-01-23T09:43:28.617Z,35.67
2019-01-23T09:46:51.888Z,32.93
2019-01-23T09:49:46.934Z,34.80
2019-01-23T09:53:00.177Z,32.90
2019-01-23T09:55:32.924Z,33.13
2019-01-23T09:58:12.783Z,33.60
2019-01-23T10:00:43.781Z,39.00
2019-01-23T10:03:13.717Z,33.70
2019-01-23T10:05:43.635Z,34.37
2019-01-23T10:08:13.489Z,36.70
2019-01-23T10:10:44.113Z,32.90
2019-01-23T10:13:13.866Z,34.67
2019-01-23T10:15:50.621Z,36.63
2019-01-23T10:18:20.545Z,38.07
2019-01-23T10:20:50.337Z,37.83
2019-01-23T10:23:20.315Z,33.43
2019-01-23T10:25:50.361Z,39.57
2019-01-23T10:28:20.307Z,37.00
2019-01-23T10:30:50.114Z,36.37
2019-01-23T10:33:19.810Z,37.53
2019-01-23T10:35:50.036Z,37.07
2019-01-23T10:38:20.914Z,37.20
2019-01-23T10:40:50.820Z,34.75
2019-01-23T10:43:20.708Z,38.00
2019-01-23T10:45:50.947Z,37.37
2019-01-23T10:48:20.871Z,38.83
2019-01-23T10:50:51.080Z,38.10
2019-01-23T10:53:20.982Z,39.93
2019-01-23T10:55:50.796Z,38.27
2019-01-23T10:58:20.638Z,42.77
2019-01-23T11:00:50.919Z,38.93
2019-01-23T11:03:20.917Z,36.63
2019-01-23T11:05:51.061Z,44.63
2019-01-23T11:08:20.960Z,40.77
2019-01-23T11:10:50.782Z,43.50
2019-01-23T11:13:20.685Z,39.67
2019-01-23T11:15:50.651Z,40.23
2019-01-23T11:18:20.647Z,42.67
2019-01-23T11:20:51.144Z,39.50
2019-01-23T11:23:21.759Z,40.47
2019-01-23T11:25:51.652Z,40.23
2019-01-23T11:28:21.579Z,37.57
2019-01-23T11:30:51.497Z,36.57
2019-01-23T11:33:21.399Z,38.57
2019-01-23T11:35:51.412Z,37.43
2019-01-23T11:38:21.473Z,39.53
2019-01-23T11:40:51.487Z,41.77
2019-01-23T11:43:21.377Z,37.75
2019-01-23T11:45:51.348Z,40.10
2019-01-23T11:48:21.296Z,40.45
2019-01-23T11:50:51.183Z,36.47
2019-01-23T11:53:21.029Z,41.67
2019-01-23T11:55:50.967Z,38.57
2019-01-23T11:58:20.951Z,37.60
2019-01-23T12:00:51.423Z,38.63
2019-01-23T12:03:21.272Z,51.03
2019-01-23T12:05:51.236Z,38.92
2019-01-23T12:08:21.227Z,38.63
2019-01-23T12:10:50.968Z,36.40
2019-01-23T12:13:20.933Z,34.60
2019-01-23T12:15:50.827Z,39.67
2019-01-23T12:18:20.783Z,35.70
2019-01-23T12:20:50.813Z,38.53
2019-01-23T12:23:20.858Z,36.07
2019-01-23T12:25:52.694Z,39.03
2019-01-23T12:28:22.681Z,38.23
2019-01-23T12:30:52.755Z,38.23
2019-01-23T12:33:22.934Z,40.93
2019-01-23T12:35:53.887Z,39.13
2019-01-23T12:38:23.964Z,38.20
2019-01-23T12:40:53.795Z,35.63
2019-01-23T12:43:26.792Z,40.87
2019-01-23T12:45:56.988Z,39.63
2019-01-23T12:48:31.504Z,36.23
2019-01-23T12:51:03.165Z,40.43
2019-01-23T12:53:34.576Z,40.23
2019-01-23T12:56:05.023Z,39.80
2019-01-23T12:58:35.343Z,44.07
2019-01-23T13:01:05.652Z,40.20
2019-01-23T13:03:35.553Z,41.73
2019-01-23T13:06:05.921Z,41.77
2019-01-23T13:08:39.031Z,35.23
2019-01-23T13:11:09.231Z,42.20
2019-01-23T13:13:39.985Z,38.78
2019-01-23T13:16:10.360Z,42.37
2019-01-23T13:18:40.471Z,46.67
2019-01-23T13:21:13.267Z,44.87
2019-01-23T13:23:44.017Z,40.37
2019-01-23T13:26:14.010Z,42.13
2019-01-23T13:28:57.717Z,47.33
2019-01-23T13:31:27.742Z,38.73
2019-01-23T13:33:57.573Z,44.80
2019-01-23T13:36:27.504Z,40.87
2019-01-23T13:38:58.637Z,42.97
2019-01-23T13:41:28.692Z,45.33
2019-01-23T13:43:58.877Z,42.37
2019-01-23T13:46:28.756Z,47.50
2019-01-23T13:48:58.589Z,45.20
2019-01-23T13:51:33.510Z,32.37
2019-01-23T13:54:03.895Z,46.07
2019-01-23T13:56:33.704Z,44.03
2019-01-23T13:59:03.524Z,35.80
2019-01-23T14:01:33.478Z,45.77
2019-01-23T14:04:03.413Z,43.70
2019-01-23T14:06:33.354Z,45.88
2019-01-23T14:09:05.854Z,42.27
2019-01-23T14:11:37.523Z,40.20
2019-01-23T14:14:12.019Z,46.80
2019-01-23T14:16:42.156Z,44.00
2019-01-23T14:19:12.171Z,44.37
2019-01-23T14:21:42.014Z,40.05
2019-01-23T14:24:13.027Z,42.50
2019-01-23T14:26:42.997Z,42.70
2019-01-23T14:29:12.919Z,41.87
2019-01-23T14:31:43.209Z,46.00
2019-01-23T14:34:13.161Z,42.33
2019-01-23T14:36:43.079Z,49.53
2019-01-23T14:39:12.940Z,42.03
2019-01-23T14:41:42.764Z,46.93
2019-01-23T14:44:12.649Z,46.30
2019-01-23T14:46:42.523Z,36.87
2019-01-23T14:49:12.434Z,42.23
2019-01-23T14:51:43.316Z,38.07
2019-01-23T14:54:13.128Z,43.30
2019-01-23T14:56:43.081Z,45.57
2019-01-23T14:59:13.220Z,41.25
2019-01-23T15:01:43.243Z,43.98
2019-01-23T15:04:13.177Z,45.00
2019-01-23T15:06:43.161Z,47.67
2019-01-23T15:09:14.063Z,42.77
2019-01-23T15:11:43.966Z,45.98
2019-01-23T15:14:14.015Z,42.97
2019-01-23T15:16:44.427Z,40.75
2019-01-23T15:19:16.432Z,38.57
2019-01-23T15:21:47.294Z,35.67
2019-01-23T15:24:50.043Z,41.60
2019-01-23T15:27:31.364Z,40.27
2019-01-23T15:30:03.219Z,44.90
2019-01-23T15:32:33.363Z,44.63
2019-01-23T15:35:03.338Z,40.17
2019-01-23T15:37:36.907Z,41.33
2019-01-23T15:40:17.740Z,42.33
2019-01-23T15:42:48.234Z,41.23
2019-01-23T15:45:18.817Z,48.07
2019-01-23T15:47:48.791Z,44.07
2019-01-23T15:50:22.284Z,39.20
2019-01-23T15:52:52.539Z,46.27
2019-01-23T15:55:24.445Z,33.87
2019-01-23T15:57:54.458Z,41.53
2019-01-23T16:00:29.485Z,41.85
2019-01-23T16:02:59.762Z,37.93
2019-01-23T16:05:30.138Z,44.23
2019-01-23T16:08:01.504Z,42.10
2019-01-23T16:10:31.525Z,44.60
2019-01-23T16:13:03.089Z,45.93
2019-01-23T16:15:33.986Z,45.45
2019-01-23T16:18:04.679Z,40.10
2019-01-23T16:20:34.757Z,40.70
2019-01-23T16:23:06.869Z,41.43
2019-01-23T16:25:36.783Z,40.37
2019-01-23T16:28:06.647Z,41.40
2019-01-23T16:30:39.655Z,45.13
2019-01-23T16:33:09.667Z,40.20
2019-01-23T16:35:39.916Z,36.73
2019-01-23T16:38:11.211Z,41.17
2019-01-23T16:40:42.116Z,44.47
2019-01-23T16:43:12.139Z,37.37
2019-01-23T16:45:42.251Z,37.53
2019-01-23T16:48:12.134Z,38.63
2019-01-23T16:50:42.001Z,44.67
2019-01-23T16:53:11.827Z,43.20
2019-01-23T16:55:42.383Z,49.43
2019-01-23T16:58:12.486Z,49.53
2019-01-23T17:00:42.751Z,45.90
2019-01-23T17:03:13.141Z,43.63
2019-01-23T17:05:43.430Z,44.67
2019-01-23T17:08:13.537Z,45.23
2019-01-23T17:10:43.471Z,45.60
2019-01-23T17:13:13.537Z,39.70
2019-01-23T17:15:43.766Z,42.30
2019-01-23T17:18:13.828Z,45.03
2019-01-23T17:20:46.455Z,44.07
2019-01-23T17:23:16.514Z,42.57
2019-01-23T17:25:46.501Z,45.93
2019-01-23T17:28:17.021Z,45.00
2019-01-23T17:30:47.002Z,42.27
2019-01-23T17:33:16.903Z,44.48
2019-01-23T17:35:46.863Z,44.08
2019-01-23T17:38:16.883Z,40.67
2019-01-23T17:40:46.832Z,35.03
2019-01-23T17:43:17.097Z,44.43
2019-01-23T17:45:47.190Z,43.13
2019-01-23T17:48:17.191Z,41.60
2019-01-23T17:50:47.292Z,36.33
2019-01-23T17:53:17.279Z,42.07
2019-01-23T17:55:47.470Z,40.43
2019-01-23T17:58:17.417Z,43.55
2019-01-23T18:00:55.030Z,43.10
2019-01-23T18:03:24.934Z,44.30
2019-01-23T18:05:54.754Z,43.90
2019-01-23T18:08:24.987Z,46.63
2019-01-23T18:10:55.070Z,44.88
2019-01-23T18:13:25.128Z,40.65
2019-01-23T18:15:58.852Z,41.23
2019-01-23T18:18:28.766Z,47.30
2019-01-23T18:20:59.112Z,41.40
2019-01-23T18:23:28.978Z,42.65
2019-01-23T18:25:59.244Z,43.13
2019-01-23T18:28:29.167Z,39.87
2019-01-23T18:31:07.696Z,38.53
2019-01-23T18:34:00.459Z,43.90
2019-01-23T18:37:08.429Z,41.13
2019-01-23T18:40:15.595Z,45.30
2019-01-23T18:43:12.928Z,46.83
2019-01-23T18:46:10.648Z,40.70
2019-01-23T18:49:20.161Z,45.15
2019-01-23T18:52:04.467Z,40.60
2019-01-23T18:54:34.262Z,43.97
2019-01-23T18:57:05.362Z,41.77
2019-01-23T18:59:35.309Z,43.80
2019-01-23T19:02:05.819Z,45.70
2019-01-23T19:04:35.840Z,44.83
2019-01-23T19:07:05.797Z,48.40
2019-01-23T19:09:36.344Z,45.97
2019-01-23T19:12:08.473Z,38.97
2019-01-23T19:14:38.659Z,48.40
2019-01-23T19:17:09.355Z,49.30
2019-01-23T19:19:39.338Z,43.00
2019-01-23T19:22:09.568Z,49.43
2019-01-23T19:24:40.042Z,44.77
2019-01-23T19:27:10.291Z,50.60
2019-01-23T19:29:40.227Z,49.45
2019-01-23T19:32:10.225Z,48.95
2019-01-23T19:34:40.396Z,43.55
2019-01-23T19:37:10.563Z,44.43
2019-01-23T19:39:42.283Z,47.20
2019-01-23T19:42:12.544Z,42.25
2019-01-23T19:44:42.432Z,45.38
2019-01-23T19:47:12.802Z,48.67
2019-01-23T19:49:44.804Z,49.23
2019-01-23T19:52:16.937Z,43.37
2019-01-23T19:54:49.396Z,45.50
2019-01-23T19:57:19.417Z,44.60
2019-01-23T19:59:49.915Z,44.45
2019-01-23T20:02:19.958Z,48.70
2019-01-23T20:04:49.900Z,43.67
2019-01-23T20:07:22.929Z,43.77
2019-01-23T20:09:53.053Z,49.50
2019-01-23T20:12:23.066Z,51.97
2019-01-23T20:14:55.848Z,51.73
2019-01-23T20:17:25.952Z,47.97
2019-01-23T20:19:56.549Z,47.77
2019-01-23T20:22:27.851Z,47.27
2019-01-23T20:25:00.775Z,46.20
2019-01-23T20:27:31.343Z,41.40
2019-01-23T20:30:01.553Z,53.23
2019-01-23T20:32:32.186Z,53.83
2019-01-23T20:35:02.324Z,51.07
2019-01-23T20:37:32.279Z,51.92
2019-01-23T20:40:02.319Z,52.77
2019-01-23T20:42:32.397Z,50.93
2019-01-23T20:45:03.151Z,48.77
2019-01-23T20:47:33.120Z,45.33
2019-01-23T20:50:03.221Z,52.13
2019-01-23T20:52:33.271Z,49.40
2019-01-23T20:55:03.340Z,52.00
2019-01-23T20:57:33.296Z,48.63
2019-01-23T21:00:12.331Z,51.00
2019-01-23T21:02:42.703Z,48.07
2019-01-23T21:05:13.805Z,47.67
2019-01-23T21:07:44.146Z,48.30
2019-01-23T21:10:15.344Z,45.97
2019-01-23T21:12:46.445Z,47.97
2019-01-23T21:15:31.825Z,50.47
2019-01-23T21:18:02.514Z,52.37
2019-01-23T21:20:35.477Z,46.00
2019-01-23T21:23:14.782Z,52.98
2019-01-23T21:25:44.856Z,48.40
2019-01-23T21:28:14.865Z,52.50
2019-01-23T21:30:44.894Z,54.67
2019-01-23T21:33:15.055Z,53.43
2019-01-23T21:35:45.025Z,55.40
2019-01-23T21:38:15.256Z,49.67
2019-01-23T21:40:45.216Z,51.67
2019-01-23T21:43:16.199Z,53.30
2019-01-23T21:45:52.420Z,49.40
2019-01-23T21:48:23.795Z,52.55
2019-01-23T21:50:55.795Z,56.53
2019-01-23T21:53:25.975Z,52.80
2019-01-23T21:55:55.814Z,54.38
2019-01-23T21:58:25.673Z,46.47
2019-01-23T22:00:57.912Z,52.30
2019-01-23T22:03:28.032Z,51.37
2019-01-23T22:05:58.839Z,50.17
2019-01-23T22:08:29.274Z,51.43
2019-01-23T22:10:59.521Z,54.00
2019-01-23T22:13:30.107Z,58.10
2019-01-23T22:16:01.092Z,48.00
2019-01-23T22:18:34.651Z,54.25
2019-01-23T22:21:05.692Z,58.30
2019-01-23T22:23:35.716Z,51.80
2019-01-23T22:26:08.511Z,58.60
2019-01-23T22:28:38.622Z,50.07
2019-01-23T22:31:08.775Z,50.23
2019-01-23T22:33:38.648Z,57.30
2019-01-23T22:36:08.889Z,52.33
2019-01-23T22:38:38.689Z,55.03
2019-01-23T22:41:08.743Z,50.40
2019-01-23T22:43:38.767Z,58.63
2019-01-23T22:46:08.747Z,53.50
2019-01-23T22:48:38.730Z,51.30
2019-01-23T22:51:08.820Z,54.07
2019-01-23T22:53:38.829Z,53.75
2019-01-23T22:56:09.045Z,53.90
2019-01-23T22:58:39.009Z,50.43
2019-01-23T23:01:24.594Z,53.97
2019-01-23T23:03:54.631Z,51.90
2019-01-23T23:06:24.581Z,53.43
2019-01-23T23:08:55.664Z,54.63
2019-01-23T23:11:25.771Z,52.87
2019-01-23T23:13:55.994Z,51.20
2019-01-23T23:16:25.909Z,52.33
2019-01-23T23:18:56.011Z,46.55
2019-01-23T23:21:26.297Z,50.90
2019-01-23T23:23:56.561Z,54.60
2019-01-23T23:26:26.496Z,53.93
2019-01-23T23:28:56.479Z,53.10
2019-01-23T23:31:26.462Z,54.50
2019-01-23T23:33:56.803Z,48.17
2019-01-23T23:36:26.839Z,48.43
2019-01-23T23:38:57.043Z,49.30
2019-01-23T23:41:26.840Z,48.87
2019-01-23T23:43:56.871Z,51.87
2019-01-23T23:46:26.784Z,51.20
2019-01-23T23:48:56.610Z,52.90
2019-01-23T23:51:26.525Z,51.17
2019-01-23T23:53:56.452Z,52.63
2019-01-23T23:56:26.617Z,55.73
2019-01-23T23:58:56.617Z,48.93
